createdAt,value
2023-01-26T00:04:35.974Z,10.70
2023-01-26T00:09:40.215Z,10.50
2023-01-26T00:14:50.335Z,11.10
2023-01-26T00:19:56.051Z,10.50
2023-01-26T00:25:00.429Z,11.10
2023-01-26T00:30:05.312Z,10.80
2023-01-26T00:35:10.105Z,9.90
2023-01-26T00:40:14.278Z,10.60
2023-01-26T00:45:18.470Z,10.60
2023-01-26T00:50:22.610Z,10.60
2023-01-26T00:55:32.723Z,11.30
2023-01-26T01:00:38.917Z,11.50
2023-01-26T01:05:43.298Z,11.00
2023-01-26T01:10:49.796Z,10.60
2023-01-26T01:15:54.179Z,10.70
2023-01-26T01:20:58.371Z,10.70
2023-01-26T01:26:03.441Z,10.50
2023-01-26T01:31:09.581Z,12.40
2023-01-26T01:36:16.197Z,10.20
2023-01-26T01:41:23.087Z,10.20
2023-01-26T01:46:36.029Z,11.10
2023-01-26T01:51:48.865Z,9.80
2023-01-26T01:56:55.453Z,10.70
2023-01-26T02:02:00.015Z,9.90
2023-01-26T02:07:05.670Z,10.00
2023-01-26T02:12:13.368Z,9.10
2023-01-26T02:17:17.308Z,9.90
2023-01-26T02:22:55.845Z,9.70
2023-01-26T02:28:01.098Z,9.70
2023-01-26T02:33:05.319Z,9.30
2023-01-26T02:38:10.493Z,10.30
2023-01-26T02:43:14.617Z,10.20
2023-01-26T02:48:37.391Z,10.50
2023-01-26T02:53:41.510Z,8.90
2023-01-26T02:58:46.053Z,9.50
2023-01-26T03:03:50.297Z,9.90
2023-01-26T03:08:57.094Z,9.70
2023-01-26T03:14:01.163Z,9.90
2023-01-26T03:19:31.559Z,9.70
2023-01-26T03:24:54.217Z,9.20
2023-01-26T03:29:59.067Z,9.00
2023-01-26T03:35:04.027Z,9.00
2023-01-26T03:40:27.702Z,9.40
2023-01-26T03:45:50.666Z,8.70
2023-01-26T03:51:14.652Z,9.40
2023-01-26T03:56:19.708Z,9.80
2023-01-26T04:01:33.363Z,10.20
2023-01-26T04:06:58.378Z,9.70
2023-01-26T04:12:03.224Z,10.30
2023-01-26T04:17:26.372Z,9.80
2023-01-26T04:22:31.681Z,10.00
2023-01-26T04:27:35.677Z,10.50
2023-01-26T04:32:41.468Z,10.90
2023-01-26T04:37:45.953Z,11.00
2023-01-26T04:42:50.951Z,10.40
2023-01-26T04:47:55.288Z,10.00
2023-01-26T04:52:59.116Z,10.80
2023-01-26T04:58:04.007Z,9.90
2023-01-26T05:03:10.370Z,10.80
2023-01-26T05:08:15.207Z,10.60
2023-01-26T05:13:19.733Z,11.20
2023-01-26T05:18:42.922Z,11.20
2023-01-26T05:24:06.319Z,11.50
2023-01-26T05:29:33.263Z,10.70
2023-01-26T05:34:38.810Z,11.20
2023-01-26T05:39:43.369Z,11.90
2023-01-26T05:44:47.276Z,11.70
2023-01-26T05:49:52.766Z,11.60
2023-01-26T05:55:05.780Z,11.20
2023-01-26T06:00:13.208Z,12.50
2023-01-26T06:05:25.014Z,11.70
2023-01-26T06:10:29.882Z,11.40
2023-01-26T06:15:52.518Z,10.70
2023-01-26T06:21:01.683Z,10.80
2023-01-26T06:26:09.913Z,10.80
2023-01-26T06:31:15.832Z,10.40
2023-01-26T06:36:20.524Z,10.30
2023-01-26T06:41:25.787Z,11.70
2023-01-26T06:46:30.031Z,10.70
2023-01-26T06:51:54.265Z,10.70
2023-01-26T06:57:02.141Z,11.30
2023-01-26T07:02:26.521Z,10.60
2023-01-26T07:07:30.770Z,11.50
2023-01-26T07:12:43.494Z,11.90
2023-01-26T07:17:47.523Z,11.80
2023-01-26T07:22:52.385Z,12.70
2023-01-26T07:28:00.622Z,13.20
2023-01-26T07:33:05.050Z,12.10
2023-01-26T07:38:09.192Z,11.70
2023-01-26T07:43:15.419Z,12.30
2023-01-26T07:48:26.063Z,12.80
2023-01-26T07:53:31.275Z,11.90
2023-01-26T07:58:36.503Z,12.70
2023-01-26T08:03:41.627Z,12.20
2023-01-26T08:08:46.981Z,12.40
2023-01-26T08:13:51.037Z,12.60
2023-01-26T08:18:55.053Z,13.40
2023-01-26T08:24:02.288Z,12.50
2023-01-26T08:29:06.321Z,13.10
2023-01-26T08:34:10.228Z,12.70
2023-01-26T08:39:14.048Z,13.30
2023-01-26T08:44:18.093Z,12.20
2023-01-26T08:49:22.331Z,14.80
2023-01-26T08:54:26.246Z,12.50
2023-01-26T08:59:30.480Z,13.00
2023-01-26T09:04:34.533Z,12.80
2023-01-26T09:09:39.184Z,13.30
2023-01-26T09:14:43.095Z,12.60
2023-01-26T09:19:47.125Z,12.80
2023-01-26T09:24:51.361Z,12.30
2023-01-26T09:29:56.439Z,12.80
2023-01-26T09:35:00.343Z,13.10
2023-01-26T09:40:05.370Z,13.90
2023-01-26T09:45:15.390Z,13.30
2023-01-26T09:50:27.803Z,13.50
2023-01-26T09:55:32.243Z,13.10
2023-01-26T10:00:50.134Z,13.30
2023-01-26T10:06:22.260Z,13.20
2023-01-26T10:11:56.183Z,13.50
2023-01-26T10:17:01.550Z,13.50
2023-01-26T10:22:20.285Z,13.10
2023-01-26T10:27:24.228Z,13.10
2023-01-26T10:32:28.376Z,13.60
2023-01-26T10:37:35.028Z,13.00
2023-01-26T10:42:40.296Z,12.80
2023-01-26T10:48:02.162Z,12.00
2023-01-26T10:58:55.368Z,12.20
2023-01-26T11:04:02.470Z,13.10
2023-01-26T11:09:15.502Z,14.10
2023-01-26T11:14:20.259Z,12.90
2023-01-26T11:20:15.570Z,12.90
2023-01-26T11:25:31.033Z,12.20
2023-01-26T11:30:40.830Z,12.60
2023-01-26T11:36:14.308Z,12.40
2023-01-26T11:41:28.355Z,13.30
2023-01-26T11:46:37.519Z,12.10
2023-01-26T11:52:15.628Z,11.40
2023-01-26T11:57:27.543Z,12.40
2023-01-26T12:02:38.575Z,12.70
2023-01-26T12:07:57.851Z,11.70
2023-01-26T12:13:13.007Z,12.00
2023-01-26T12:18:42.255Z,12.70
2023-01-26T12:24:04.088Z,12.10
2023-01-26T12:29:27.099Z,11.70
2023-01-26T12:34:34.315Z,12.50
2023-01-26T12:39:46.368Z,11.90
2023-01-26T12:44:53.450Z,12.50
2023-01-26T12:50:06.487Z,12.90
2023-01-26T12:55:21.561Z,12.40
2023-01-26T13:00:31.252Z,12.80
2023-01-26T13:05:36.875Z,12.50
2023-01-26T13:10:50.327Z,14.30
2023-01-26T13:16:16.185Z,13.60
2023-01-26T13:21:39.998Z,14.20
2023-01-26T13:26:46.639Z,13.30
2023-01-26T13:31:51.184Z,14.30
2023-01-26T13:37:19.774Z,13.90
2023-01-26T13:42:28.632Z,14.40
2023-01-26T13:47:39.632Z,13.20
2023-01-26T13:52:43.731Z,14.70
2023-01-26T13:57:49.989Z,14.50
2023-01-26T14:02:54.919Z,13.40
2023-01-26T14:08:00.158Z,14.00
2023-01-26T14:13:05.066Z,13.70
2023-01-26T14:18:22.113Z,14.20
2023-01-26T14:23:33.264Z,13.70
2023-01-26T14:35:23.453Z,14.70
2023-01-26T14:40:31.785Z,15.30
2023-01-26T14:45:41.296Z,15.50
2023-01-26T14:50:47.161Z,14.80
2023-01-26T14:55:52.438Z,15.00
2023-01-26T15:00:59.248Z,14.50
2023-01-26T15:06:15.867Z,14.70
2023-01-26T15:11:51.495Z,14.30
2023-01-26T15:16:55.635Z,14.70
2023-01-26T15:22:00.403Z,16.50
2023-01-26T15:27:07.788Z,20.20
2023-01-26T15:32:28.699Z,21.00
2023-01-26T15:37:35.779Z,21.60
2023-01-26T15:42:39.844Z,21.00
2023-01-26T15:47:44.198Z,20.10
2023-01-26T15:52:48.118Z,19.90
2023-01-26T15:57:52.154Z,20.40
2023-01-26T16:02:56.290Z,19.20
2023-01-26T16:08:00.206Z,19.20
2023-01-26T16:13:12.346Z,18.60
2023-01-26T16:18:16.977Z,18.70
2023-01-26T16:23:25.427Z,19.40
2023-01-26T16:28:29.445Z,18.80
2023-01-26T16:33:33.987Z,18.80
2023-01-26T16:38:39.165Z,18.80
2023-01-26T16:43:43.782Z,18.40
2023-01-26T16:48:47.660Z,17.70
2023-01-26T16:53:53.999Z,19.00
2023-01-26T16:58:58.129Z,18.10
2023-01-26T17:04:02.678Z,18.50
2023-01-26T17:09:07.119Z,17.80
2023-01-26T17:14:12.554Z,19.60
2023-01-26T17:19:17.013Z,20.30
2023-01-26T17:24:21.101Z,19.60
2023-01-26T17:29:25.244Z,20.00
2023-01-26T17:34:29.523Z,20.70
2023-01-26T17:39:33.945Z,20.30
2023-01-26T17:44:40.567Z,20.20
2023-01-26T17:49:45.108Z,22.60
2023-01-26T17:54:49.240Z,23.50
2023-01-26T17:59:55.535Z,24.00
2023-01-26T18:05:00.517Z,25.00
2023-01-26T18:10:06.316Z,25.40
2023-01-26T18:15:12.409Z,32.60
2023-01-26T18:20:18.548Z,32.50
2023-01-26T18:25:24.516Z,31.40
2023-01-26T18:30:32.347Z,31.50
2023-01-26T18:35:37.162Z,28.80
2023-01-26T18:40:42.729Z,29.50
2023-01-26T18:45:48.276Z,29.00
2023-01-26T18:50:53.853Z,28.50
2023-01-26T18:56:07.683Z,26.90
2023-01-26T19:01:17.744Z,26.90
2023-01-26T19:06:24.870Z,26.10
2023-01-26T19:11:33.311Z,25.80
2023-01-26T19:16:41.177Z,27.20
2023-01-26T19:21:48.277Z,26.70
2023-01-26T19:26:54.169Z,27.70
2023-01-26T19:32:00.250Z,27.30
2023-01-26T19:37:05.831Z,27.20
2023-01-26T19:42:11.649Z,26.80
2023-01-26T19:47:16.913Z,27.80
2023-01-26T19:52:26.681Z,26.30
2023-01-26T19:57:33.712Z,26.10
2023-01-26T20:02:39.922Z,26.60
2023-01-26T20:07:46.159Z,26.70
2023-01-26T20:12:52.278Z,26.30
2023-01-26T20:17:58.531Z,27.10
2023-01-26T20:23:06.123Z,25.30
2023-01-26T20:28:10.859Z,25.60
2023-01-26T20:33:16.075Z,25.50
2023-01-26T20:38:20.691Z,25.00
2023-01-26T20:43:27.229Z,24.60
2023-01-26T20:48:36.018Z,23.20
2023-01-26T20:53:42.481Z,23.30
2023-01-26T20:58:48.270Z,24.40
2023-01-26T21:03:53.504Z,23.90
2023-01-26T21:09:00.747Z,24.00
2023-01-26T21:14:05.821Z,24.90
2023-01-26T21:19:10.923Z,22.80
2023-01-26T21:24:15.324Z,23.20
2023-01-26T21:29:20.218Z,22.20
2023-01-26T21:34:24.575Z,22.60
2023-01-26T21:39:29.008Z,22.60
2023-01-26T21:44:53.640Z,22.70
2023-01-26T21:49:59.905Z,21.20
2023-01-26T21:55:04.765Z,21.60
2023-01-26T22:00:10.274Z,21.30
2023-01-26T22:05:14.446Z,21.40
2023-01-26T22:10:18.444Z,21.60
2023-01-26T22:15:22.520Z,21.20
2023-01-26T22:20:26.655Z,20.80
2023-01-26T22:25:30.677Z,21.60
2023-01-26T22:30:35.369Z,22.10
2023-01-26T22:35:39.365Z,21.90
2023-01-26T22:40:43.287Z,21.10
2023-01-26T22:45:47.257Z,23.30
2023-01-26T22:50:51.161Z,23.70
2023-01-26T22:55:55.587Z,21.60
2023-01-26T23:01:09.078Z,22.00
2023-01-26T23:06:15.217Z,22.20
2023-01-26T23:11:20.472Z,21.80
2023-01-26T23:16:25.890Z,21.90
2023-01-26T23:21:30.309Z,21.50
2023-01-26T23:26:34.019Z,22.30
2023-01-26T23:31:38.204Z,21.60
2023-01-26T23:36:42.589Z,20.30
2023-01-26T23:41:46.526Z,21.80
2023-01-26T23:46:50.697Z,21.30
2023-01-26T23:51:54.887Z,21.20
2023-01-26T23:56:58.934Z,20.20
